Thicket Portage, Canada
Current Conditions -  °F | °C
As of 3:00 PM on Monday 24 Nov 2014 (Local Time) from CYTH Reporting Station
Light Snow Light Snow  
Wind Chill: -9°   Ceiling: 6000
Heat Index:   Visibility: 6mi
Dew Point: -2°   Wind: 7mph
Humidity: 78%   Direction: 280°W
Pressure: 29.82"   Gusts: NA
Location:  55.32°N, 97.7°W
Report Text: CYTH 242100Z 28006KT 6SM -SN SCT040 BKN060 OVC080 M16/M19 A2982 RMK SC3SC4AC1 SLP128
Loading
Personal Weather Stations






























Interactive Weather Map New forecast layout! Learn more

10-Day Weather Forecast

Advertisements
Track Severe Weather on mobile